createdAt,value
2019-01-12T00:01:34.461Z,97314.88
2019-01-12T00:04:06.070Z,97316.64
2019-01-12T00:06:37.710Z,97314.96
2019-01-12T00:09:10.326Z,97325.84
2019-01-12T00:11:41.831Z,97323.27
2019-01-12T00:14:13.456Z,97322.34
2019-01-12T00:16:44.963Z,97317.75
2019-01-12T00:19:16.435Z,97324.99
2019-01-12T00:21:49.005Z,97319.13
2019-01-12T00:24:20.505Z,97322.05
2019-01-12T00:26:51.993Z,97317.36
2019-01-12T00:29:23.576Z,97326.30
2019-01-12T00:31:55.148Z,97322.12
2019-01-12T00:34:26.709Z,97325.13
2019-01-12T00:36:58.416Z,97334.36
2019-01-12T00:39:29.855Z,97334.82
2019-01-12T00:42:01.342Z,97335.50
2019-01-12T00:44:32.820Z,97343.52
2019-01-12T00:47:04.477Z,97349.77
2019-01-12T00:49:36.036Z,97345.16
2019-01-12T00:52:07.647Z,97347.89
2019-01-12T00:54:39.135Z,97336.93
2019-01-12T00:57:10.783Z,97333.09
2019-01-12T00:59:42.306Z,97329.72
2019-01-12T01:02:13.776Z,97320.06
2019-01-12T01:04:45.400Z,97312.89
2019-01-12T01:07:17.408Z,97306.27
2019-01-12T01:09:49.036Z,97313.81
2019-01-12T01:12:20.643Z,97313.70
2019-01-12T01:14:52.264Z,97303.19
2019-01-12T01:17:23.676Z,97301.46
2019-01-12T01:19:55.292Z,97297.70
2019-01-12T01:22:26.866Z,97289.77
2019-01-12T01:24:58.470Z,97288.18
2019-01-12T01:27:30.168Z,97302.77
2019-01-12T01:30:01.706Z,97297.84
2019-01-12T01:32:33.298Z,97299.48
2019-01-12T01:35:05.396Z,97293.66
2019-01-12T01:37:36.817Z,97294.08
2019-01-12T01:40:10.737Z,97296.61
2019-01-12T01:42:42.145Z,97288.26
2019-01-12T01:45:14.851Z,97287.30
2019-01-12T01:47:46.312Z,97288.22
2019-01-12T01:50:17.898Z,97287.42
2019-01-12T01:52:50.805Z,97276.58
2019-01-12T01:55:23.193Z,97287.80
2019-01-12T01:57:54.785Z,97282.41
2019-01-12T02:00:27.416Z,97276.12
2019-01-12T02:02:59.066Z,97277.30
2019-01-12T02:05:32.176Z,97268.99
2019-01-12T02:08:03.900Z,97255.92
2019-01-12T02:10:35.487Z,97258.07
2019-01-12T02:13:07.163Z,97247.70
2019-01-12T02:15:38.798Z,97248.54
2019-01-12T02:18:10.296Z,97243.48
2019-01-12T02:20:41.831Z,97244.45
2019-01-12T02:23:13.366Z,97246.56
2019-01-12T02:25:45.031Z,97244.49
2019-01-12T02:28:16.724Z,97245.80
2019-01-12T02:30:48.430Z,97246.60
2019-01-12T02:33:20.160Z,97249.94
2019-01-12T02:35:51.782Z,97246.14
2019-01-12T02:38:23.448Z,97245.84
2019-01-12T02:40:54.997Z,97247.48
2019-01-12T02:43:26.408Z,97244.08
2019-01-12T02:45:58.003Z,97234.84
2019-01-12T02:48:29.441Z,97239.98
2019-01-12T02:51:01.027Z,97238.72
2019-01-12T02:53:32.496Z,97235.73
2019-01-12T02:56:04.097Z,97233.20
2019-01-12T02:58:35.622Z,97234.08
2019-01-12T03:01:07.149Z,97233.28
2019-01-12T03:03:38.575Z,97224.85
2019-01-12T03:06:10.180Z,97219.37
2019-01-12T03:08:41.765Z,97216.05
2019-01-12T03:11:13.312Z,97217.69
2019-01-12T03:13:44.814Z,97218.16
2019-01-12T03:16:16.526Z,97215.45
2019-01-12T03:18:47.959Z,97215.45
2019-01-12T03:21:19.540Z,97215.55
2019-01-12T03:23:51.044Z,97210.11
2019-01-12T03:26:22.613Z,97196.66
2019-01-12T03:28:54.209Z,97192.53
2019-01-12T03:31:25.754Z,97194.17
2019-01-12T03:33:57.313Z,97195.94
2019-01-12T03:36:28.870Z,97189.20
2019-01-12T03:39:00.351Z,97186.67
2019-01-12T03:41:32.009Z,97194.22
2019-01-12T03:44:03.572Z,97183.80
2019-01-12T03:46:35.223Z,97186.75
2019-01-12T03:49:06.947Z,97184.66
2019-01-12T03:51:38.556Z,97186.33
2019-01-12T03:54:10.228Z,97185.37
2019-01-12T03:56:41.824Z,97187.09
2019-01-12T03:59:13.487Z,97185.41
2019-01-12T04:01:45.150Z,97195.48
2019-01-12T04:04:16.837Z,97190.89
2019-01-12T04:06:48.641Z,97188.31
2019-01-12T04:09:20.275Z,97189.63
2019-01-12T04:11:51.950Z,97187.22
2019-01-12T04:14:23.518Z,97177.53
2019-01-12T04:16:55.148Z,97177.98
2019-01-12T04:19:26.611Z,97185.66
2019-01-12T04:21:58.132Z,97175.55
2019-01-12T04:24:29.743Z,97180.18
2019-01-12T04:27:01.279Z,97178.03
2019-01-12T04:29:32.759Z,97171.22
2019-01-12T04:32:04.418Z,97159.50
2019-01-12T04:34:35.957Z,97159.13
2019-01-12T04:37:07.488Z,97150.70
2019-01-12T04:39:38.939Z,97146.78
2019-01-12T04:42:10.508Z,97156.97
2019-01-12T04:44:42.020Z,97151.12
2019-01-12T04:47:13.547Z,97142.27
2019-01-12T04:49:45.163Z,97149.34
2019-01-12T04:52:16.715Z,97140.96
2019-01-12T04:54:48.409Z,97149.84
2019-01-12T04:57:19.866Z,97143.07
2019-01-12T04:59:51.511Z,97138.91
2019-01-12T05:02:23.076Z,97139.49
2019-01-12T05:04:54.641Z,97148.29
2019-01-12T05:07:26.213Z,97133.72
2019-01-12T05:09:57.941Z,97142.09
2019-01-12T05:12:29.643Z,97145.67
2019-01-12T05:15:02.564Z,97146.09
2019-01-12T05:17:34.264Z,97152.41
2019-01-12T05:20:08.800Z,97146.52
2019-01-12T05:22:40.701Z,97157.00
2019-01-12T05:25:12.723Z,97154.09
2019-01-12T05:27:44.571Z,97155.77
2019-01-12T05:30:18.902Z,97149.80
2019-01-12T05:32:51.289Z,97155.48
2019-01-12T05:35:23.752Z,97170.12
2019-01-12T05:37:56.867Z,97163.09
2019-01-12T05:40:28.962Z,97151.72
2019-01-12T05:43:00.782Z,97157.62
2019-01-12T05:45:32.787Z,97169.02
2019-01-12T05:48:04.754Z,97171.85
2019-01-12T05:50:36.515Z,97165.23
2019-01-12T05:53:08.129Z,97165.69
2019-01-12T05:55:39.838Z,97155.17
2019-01-12T05:58:11.843Z,97151.03
2019-01-12T06:00:43.817Z,97155.25
2019-01-12T06:03:15.307Z,97165.34
2019-01-12T06:05:46.785Z,97154.90
2019-01-12T06:08:18.661Z,97151.11
2019-01-12T06:10:51.076Z,97148.63
2019-01-12T06:13:22.605Z,97149.05
2019-01-12T06:15:54.397Z,97154.09
2019-01-12T06:18:26.690Z,97162.09
2019-01-12T06:20:58.460Z,97165.77
2019-01-12T06:23:30.518Z,97168.75
2019-01-12T06:26:04.038Z,97177.94
2019-01-12T06:28:36.013Z,97183.34
2019-01-12T06:31:07.581Z,97183.30
2019-01-12T06:33:39.256Z,97177.83
2019-01-12T06:36:11.126Z,97184.83
2019-01-12T06:38:42.704Z,97184.80
2019-01-12T06:41:14.572Z,97175.06
2019-01-12T06:43:46.311Z,97181.77
2019-01-12T06:46:18.037Z,97175.48
2019-01-12T06:48:49.871Z,97170.36
2019-01-12T06:51:21.427Z,97171.50
2019-01-12T06:53:53.260Z,97177.70
2019-01-12T06:56:24.871Z,97172.44
2019-01-12T06:58:56.588Z,97175.05
2019-01-12T07:01:28.414Z,97180.86
2019-01-12T07:04:00.249Z,97179.80
2019-01-12T07:06:31.883Z,97172.13
2019-01-12T07:09:04.929Z,97170.48
2019-01-12T07:11:36.883Z,97165.47
2019-01-12T07:14:08.755Z,97163.78
2019-01-12T07:16:40.902Z,97165.08
2019-01-12T07:19:12.904Z,97171.73
2019-01-12T07:21:45.288Z,97177.47
2019-01-12T07:24:17.024Z,97173.16
2019-01-12T07:26:49.092Z,97177.84
2019-01-12T07:29:21.110Z,97186.69
2019-01-12T07:31:53.280Z,97189.64
2019-01-12T07:34:25.064Z,97191.20
2019-01-12T07:36:56.978Z,97178.88
2019-01-12T07:39:28.899Z,97169.59
2019-01-12T07:42:01.150Z,97167.97
2019-01-12T07:44:33.054Z,97164.13
2019-01-12T07:47:06.291Z,97163.79
2019-01-12T07:49:39.811Z,97159.91
2019-01-12T07:52:13.011Z,97162.44
2019-01-12T07:54:45.330Z,97155.45
2019-01-12T07:57:19.115Z,97150.25
2019-01-12T07:59:51.793Z,97154.31
2019-01-12T08:02:25.411Z,97153.64
2019-01-12T08:04:57.586Z,97144.31
2019-01-12T08:07:29.963Z,97136.56
2019-01-12T08:10:03.693Z,97132.72
2019-01-12T08:12:35.871Z,97143.86
2019-01-12T08:15:08.562Z,97135.83
2019-01-12T08:17:40.864Z,97137.64
2019-01-12T08:20:14.972Z,97133.09
2019-01-12T08:22:47.393Z,97128.33
2019-01-12T08:25:19.863Z,97125.11
2019-01-12T08:27:52.581Z,97130.14
2019-01-12T08:30:25.262Z,97131.00
2019-01-12T08:32:58.442Z,97122.97
2019-01-12T08:35:31.113Z,97139.52
2019-01-12T08:38:03.592Z,97123.56
2019-01-12T08:40:36.022Z,97116.38
2019-01-12T08:43:08.191Z,97113.98
2019-01-12T08:45:40.405Z,97112.33
2019-01-12T08:48:13.290Z,97096.28
2019-01-12T08:50:45.924Z,97092.13
2019-01-12T08:53:17.882Z,97097.36
2019-01-12T08:55:51.762Z,97088.80
2019-01-12T08:58:24.073Z,97077.36
2019-01-12T09:00:56.402Z,97085.75
2019-01-12T09:03:28.792Z,97069.16
2019-01-12T09:06:00.882Z,97062.59
2019-01-12T09:08:33.993Z,97060.11
2019-01-12T09:11:06.262Z,97063.24
2019-01-12T09:13:38.663Z,97064.63
2019-01-12T09:16:22.182Z,97062.70
2019-01-12T09:18:54.792Z,97056.78
2019-01-12T09:21:27.233Z,97048.27
2019-01-12T09:23:59.863Z,97051.19
2019-01-12T09:26:32.451Z,97048.58
2019-01-12T09:29:04.951Z,97038.67
2019-01-12T09:31:37.324Z,97030.63
2019-01-12T09:34:09.824Z,97016.09
2019-01-12T09:36:42.124Z,97016.88
2019-01-12T09:39:14.445Z,97013.05
2019-01-12T09:41:46.524Z,97009.75
2019-01-12T09:44:18.835Z,97008.24
2019-01-12T09:46:51.222Z,97005.67
2019-01-12T09:49:24.926Z,97003.70
2019-01-12T09:51:56.924Z,96999.30
2019-01-12T09:54:29.196Z,96993.80
2019-01-12T09:57:01.305Z,96995.04
2019-01-12T09:59:33.542Z,96988.42
2019-01-12T10:02:06.026Z,96991.98
2019-01-12T10:04:38.446Z,96990.02
2019-01-12T10:07:10.714Z,96988.38
2019-01-12T10:09:43.295Z,96981.05
2019-01-12T10:12:15.564Z,96983.72
2019-01-12T10:14:48.045Z,96978.93
2019-01-12T10:17:20.306Z,96979.69
2019-01-12T10:19:52.646Z,96972.82
2019-01-12T10:22:28.523Z,96972.38
2019-01-12T10:24:58.705Z,96973.77
2019-01-12T10:27:32.244Z,96967.95
2019-01-12T10:30:05.994Z,96960.59
2019-01-12T10:32:38.374Z,96958.58
2019-01-12T10:35:10.894Z,96953.82
2019-01-12T10:37:43.578Z,96951.27
2019-01-12T10:40:16.825Z,96940.50
2019-01-12T10:42:50.494Z,96939.34
2019-01-12T10:45:25.273Z,96935.97
2019-01-12T10:47:59.675Z,96942.27
2019-01-12T10:50:36.575Z,96932.74
2019-01-12T10:53:09.175Z,96933.42
2019-01-12T10:55:41.455Z,96931.56
2019-01-12T10:58:14.602Z,96928.34
2019-01-12T11:00:47.807Z,96920.89
2019-01-12T11:03:21.654Z,96926.27
2019-01-12T11:05:56.514Z,96932.37
2019-01-12T11:08:29.073Z,96933.60
2019-01-12T11:11:01.364Z,96936.47
2019-01-12T11:13:33.875Z,96939.27
2019-01-12T11:16:06.354Z,96935.72
2019-01-12T11:18:39.932Z,96933.97
2019-01-12T11:21:25.533Z,96926.37
2019-01-12T11:24:00.543Z,96929.13
2019-01-12T11:26:34.905Z,96932.04
2019-01-12T11:29:09.336Z,96932.44
2019-01-12T11:31:43.467Z,96935.79
2019-01-12T11:34:20.754Z,96938.50
2019-01-12T11:37:00.234Z,96936.23
2019-01-12T11:39:32.843Z,96926.51
2019-01-12T11:42:05.924Z,96924.91
2019-01-12T11:44:38.484Z,96922.03
2019-01-12T11:47:11.134Z,96917.88
2019-01-12T11:49:43.795Z,96914.52
2019-01-12T11:52:16.224Z,96901.16
2019-01-12T11:54:48.505Z,96909.77
2019-01-12T11:57:21.145Z,96903.97
2019-01-12T12:01:34.573Z,96907.09
2019-01-12T12:04:07.132Z,96902.05
2019-01-12T12:06:39.312Z,96902.19
2019-01-12T12:09:11.744Z,96894.99
2019-01-12T12:11:44.306Z,96894.81
2019-01-12T12:14:16.596Z,96896.05
2019-01-12T12:28:12.203Z,96884.03
2019-01-12T12:31:03.822Z,96890.90
2019-01-12T12:33:50.204Z,96886.20
2019-01-12T12:36:26.682Z,96888.51
2019-01-12T12:39:09.714Z,96890.61
2019-01-12T12:41:42.712Z,96887.89
2019-01-12T12:44:21.226Z,96883.94
2019-01-12T12:46:53.968Z,96889.61
2019-01-12T12:49:34.998Z,96888.66
2019-01-12T12:52:16.296Z,96897.94
2019-01-12T12:54:50.856Z,96906.65
2019-01-12T12:57:25.676Z,96904.69
2019-01-12T13:00:01.215Z,96907.56
2019-01-12T13:02:33.931Z,96906.47
2019-01-12T13:05:09.413Z,96914.21
2019-01-12T13:07:42.675Z,96912.17
2019-01-12T13:10:20.140Z,96918.17
2019-01-12T13:12:53.750Z,96908.29
2019-01-12T13:15:26.790Z,96918.86
2019-01-12T13:17:59.190Z,96920.05
2019-01-12T13:20:31.663Z,96926.16
2019-01-12T13:23:04.411Z,96927.97
2019-01-12T13:25:40.761Z,96925.64
2019-01-12T13:28:13.610Z,96922.20
2019-01-12T13:30:50.063Z,96922.49
2019-01-12T13:33:22.671Z,96920.72
2019-01-12T13:35:55.103Z,96925.59
2019-01-12T13:38:27.260Z,96917.58
2019-01-12T13:40:59.803Z,96922.66
2019-01-12T13:43:31.971Z,96925.38
2019-01-12T13:46:04.302Z,96919.22
2019-01-12T13:48:36.522Z,96921.69
2019-01-12T13:51:08.829Z,96915.24
2019-01-12T13:53:41.021Z,96920.66
2019-01-12T13:56:13.484Z,96923.94
2019-01-12T13:58:45.762Z,96922.08
2019-01-12T14:01:18.281Z,96912.07
2019-01-12T14:03:50.770Z,96912.44
2019-01-12T14:06:23.540Z,96906.66
2019-01-12T14:08:58.771Z,96899.77
2019-01-12T14:11:31.703Z,96893.69
2019-01-12T14:14:09.540Z,96891.54
2019-01-12T14:19:52.240Z,96874.47
2019-01-12T14:22:24.688Z,96874.36
2019-01-12T14:25:02.239Z,96869.09
2019-01-12T14:27:35.310Z,96875.95
2019-01-12T14:30:15.860Z,96873.31
2019-01-12T14:32:49.419Z,96865.70
2019-01-12T14:35:28.249Z,96867.66
2019-01-12T14:38:06.401Z,96868.17
2019-01-12T14:40:46.258Z,96870.09
2019-01-12T14:43:20.378Z,96868.52
2019-01-12T14:45:56.260Z,96874.05
2019-01-12T14:48:32.458Z,96871.30
2019-01-12T14:51:05.143Z,96872.12
2019-01-12T14:53:37.778Z,96873.45
2019-01-12T14:56:10.229Z,96869.45
2019-01-12T14:58:42.719Z,96872.05
2019-01-12T15:01:15.002Z,96867.98
2019-01-12T15:03:47.359Z,96862.83
2019-01-12T15:06:19.639Z,96861.99
2019-01-12T15:08:52.170Z,96864.67
2019-01-12T15:11:24.321Z,96859.17
2019-01-12T15:13:56.712Z,96861.45
2019-01-12T15:16:28.830Z,96853.75
2019-01-12T15:19:01.050Z,96848.39
2019-01-12T15:21:33.261Z,96844.19
2019-01-12T15:24:05.748Z,96845.95
2019-01-12T15:26:38.071Z,96846.15
2019-01-12T15:29:10.431Z,96849.38
2019-01-12T15:31:43.041Z,96853.33
2019-01-12T15:34:15.340Z,96849.95
2019-01-12T15:36:47.513Z,96860.51
2019-01-12T15:39:19.721Z,96861.80
2019-01-12T15:41:51.941Z,96872.61
2019-01-12T15:44:24.350Z,96879.73
2019-01-12T15:46:56.760Z,96876.41
2019-01-12T15:49:29.040Z,96873.12
2019-01-12T15:52:01.312Z,96885.31
2019-01-12T15:54:33.581Z,96883.27
2019-01-12T15:57:06.398Z,96892.20
2019-01-12T15:59:38.601Z,96890.23
2019-01-12T16:02:11.510Z,96899.87
2019-01-12T16:04:43.614Z,96899.60
2019-01-12T16:07:16.021Z,96900.58
2019-01-12T16:09:48.261Z,96900.66
2019-01-12T16:12:20.670Z,96901.01
2019-01-12T16:14:52.930Z,96907.59
2019-01-12T16:17:25.102Z,96897.83
2019-01-12T16:19:57.481Z,96898.72
2019-01-12T16:22:29.523Z,96899.50
2019-01-12T16:25:01.718Z,96900.08
2019-01-12T16:27:33.869Z,96896.65
2019-01-12T16:30:07.561Z,96900.45
2019-01-12T16:32:39.990Z,96897.22
2019-01-12T16:35:12.210Z,96893.82
2019-01-12T16:37:45.371Z,96890.58
2019-01-12T16:40:20.008Z,96885.22
2019-01-12T16:42:52.731Z,96886.62
2019-01-12T16:45:25.109Z,96893.38
2019-01-12T16:47:57.459Z,96893.56
2019-01-12T16:50:29.879Z,96879.52
2019-01-12T16:53:02.031Z,96885.37
2019-01-12T16:55:35.713Z,96880.36
2019-01-12T16:58:08.180Z,96886.03
2019-01-12T17:00:40.851Z,96891.94
2019-01-12T17:03:12.992Z,96887.35
2019-01-12T17:05:45.328Z,96884.84
2019-01-12T17:08:18.561Z,96884.16
2019-01-12T17:10:50.779Z,96881.27
2019-01-12T17:13:22.918Z,96870.79
2019-01-12T17:15:55.150Z,96880.56
2019-01-12T17:18:27.300Z,96873.45
2019-01-12T17:20:59.470Z,96880.19
2019-01-12T17:23:31.481Z,96875.14
2019-01-12T17:26:03.802Z,96868.61
2019-01-12T17:28:37.366Z,96869.90
2019-01-12T17:31:10.054Z,96871.64
2019-01-12T17:33:42.221Z,96873.75
2019-01-12T17:36:14.651Z,96873.75
2019-01-12T17:38:46.820Z,96871.75
2019-01-12T17:41:19.092Z,96875.92
2019-01-12T17:43:51.403Z,96877.24
2019-01-12T17:46:23.811Z,96867.97
2019-01-12T17:48:56.871Z,96878.20
2019-01-12T17:51:31.110Z,96870.56
2019-01-12T17:54:04.964Z,96876.51
2019-01-12T17:56:36.964Z,96878.09
2019-01-12T17:59:09.990Z,96884.13
2019-01-12T18:01:43.522Z,96893.09
2019-01-12T18:04:15.992Z,96888.40
2019-01-12T18:06:50.070Z,96893.56
2019-01-12T18:09:22.137Z,96891.88
2019-01-12T18:11:54.322Z,96891.09
2019-01-12T18:14:26.688Z,96909.66
2019-01-12T18:17:01.423Z,96905.50
2019-01-12T18:19:33.968Z,96901.52
2019-01-12T18:22:07.420Z,96909.22
2019-01-12T18:24:40.162Z,96907.07
2019-01-12T18:27:12.676Z,96911.30
2019-01-12T18:29:47.142Z,96917.72
2019-01-12T18:32:19.909Z,96919.56
2019-01-12T18:34:52.008Z,96918.22
2019-01-12T18:37:24.117Z,96919.80
2019-01-12T18:39:57.085Z,96920.83
2019-01-12T18:42:29.155Z,96915.50
2019-01-12T18:45:01.340Z,96926.47
2019-01-12T18:47:33.366Z,96920.69
2019-01-12T18:50:05.840Z,96922.30
2019-01-12T18:52:37.856Z,96918.46
2019-01-12T18:55:10.638Z,96931.91
2019-01-12T18:57:42.776Z,96938.88
2019-01-12T19:00:19.475Z,96937.06
2019-01-12T19:02:51.825Z,96945.15
2019-01-12T19:05:24.864Z,96946.40
2019-01-12T19:07:57.211Z,96945.98
2019-01-12T19:10:29.489Z,96947.32
2019-01-12T19:13:02.346Z,96947.99
2019-01-12T19:15:34.672Z,96951.05
2019-01-12T19:18:06.843Z,96947.62
2019-01-12T19:20:39.699Z,96947.41
2019-01-12T19:23:11.857Z,96941.47
2019-01-12T19:25:43.839Z,96953.00
2019-01-12T19:28:15.774Z,96939.89
2019-01-12T19:30:47.677Z,96944.42
2019-01-12T19:33:20.026Z,96949.13
2019-01-12T19:35:52.208Z,96951.23
2019-01-12T19:38:24.372Z,96950.39
2019-01-12T19:40:56.609Z,96954.55
2019-01-12T19:43:28.954Z,96957.88
2019-01-12T19:46:01.048Z,96962.30
2019-01-12T19:48:33.078Z,96966.20
2019-01-12T19:51:05.255Z,96968.45
2019-01-12T19:53:37.188Z,96967.57
2019-01-12T19:56:08.915Z,96965.92
2019-01-12T19:58:40.708Z,96956.91
2019-01-12T20:01:12.286Z,96959.34
2019-01-12T20:03:44.269Z,96957.41
2019-01-12T20:06:17.113Z,96960.56
2019-01-12T20:08:49.493Z,96952.25
2019-01-12T20:11:21.133Z,96948.50
2019-01-12T20:13:53.076Z,96954.39
2019-01-12T20:16:24.716Z,96951.91
2019-01-12T20:18:56.505Z,96958.66
2019-01-12T20:21:28.224Z,96954.50
2019-01-12T20:24:00.109Z,96957.66
2019-01-12T20:26:31.724Z,96954.38
2019-01-12T20:29:03.826Z,96944.84
2019-01-12T20:32:10.143Z,96940.17
2019-01-12T20:35:05.891Z,96936.70
2019-01-12T20:38:19.706Z,96937.17
2019-01-12T20:41:43.791Z,96933.31
2019-01-12T20:45:13.870Z,96930.59
2019-01-12T20:48:13.111Z,96924.05
2019-01-12T20:51:39.868Z,96925.73
2019-01-12T20:55:19.453Z,96919.61
2019-01-12T20:58:21.785Z,96917.56
2019-01-12T21:01:34.338Z,96910.55
2019-01-12T21:04:49.036Z,96914.71
2019-01-12T21:08:01.182Z,96913.23
2019-01-12T21:11:27.170Z,96911.97
2019-01-12T21:14:50.512Z,96911.81
2019-01-12T21:17:22.446Z,96911.64
2019-01-12T21:19:54.125Z,96905.37
2019-01-12T21:22:25.828Z,96900.16
2019-01-12T21:24:57.407Z,96891.58
2019-01-12T21:27:29.088Z,96894.57
2019-01-12T21:30:00.565Z,96905.42
2019-01-12T21:32:32.091Z,96905.38
2019-01-12T21:35:03.792Z,96901.53
2019-01-12T21:37:36.705Z,96906.17
2019-01-12T21:40:09.192Z,96906.64
2019-01-12T21:42:40.713Z,96903.21
2019-01-12T21:45:13.865Z,96908.69
2019-01-12T21:47:45.348Z,96911.22
2019-01-12T21:50:16.893Z,96910.44
2019-01-12T21:52:48.334Z,96912.48
2019-01-12T21:55:20.562Z,96907.84
2019-01-12T21:57:52.158Z,96906.91
2019-01-12T22:00:24.799Z,96908.00
2019-01-12T22:02:56.611Z,96903.73
2019-01-12T22:05:28.968Z,96905.94
2019-01-12T22:08:00.648Z,96899.16
2019-01-12T22:10:32.309Z,96909.36
2019-01-12T22:13:03.862Z,96910.44
2019-01-12T22:15:35.463Z,96899.17
2019-01-12T22:18:07.043Z,96899.77
2019-01-12T22:20:38.590Z,96901.59
2019-01-12T22:23:10.143Z,96908.57
2019-01-12T22:25:41.711Z,96902.88
2019-01-12T22:28:13.233Z,96898.19
2019-01-12T22:30:44.763Z,96892.39
2019-01-12T22:33:16.373Z,96893.66
2019-01-12T22:35:48.062Z,96891.74
2019-01-12T22:38:19.677Z,96885.80
2019-01-12T22:40:51.290Z,96887.85
2019-01-12T22:43:22.953Z,96891.64
2019-01-12T22:45:54.597Z,96896.64
2019-01-12T22:48:26.182Z,96890.14
2019-01-12T22:50:57.681Z,96888.84
2019-01-12T22:53:29.149Z,96886.17
2019-01-12T22:56:00.698Z,96879.77
2019-01-12T22:58:33.829Z,96886.69
2019-01-12T23:01:36.139Z,96888.27
2019-01-12T23:04:07.818Z,96868.41
2019-01-12T23:06:39.394Z,96866.27
2019-01-12T23:09:13.502Z,96864.66
2019-01-12T23:11:45.120Z,96859.76
2019-01-12T23:14:16.909Z,96867.33
2019-01-12T23:16:48.382Z,96868.08
2019-01-12T23:19:20.036Z,96864.77
2019-01-12T23:21:51.497Z,96864.75
2019-01-12T23:24:23.061Z,96860.64
2019-01-12T23:26:55.773Z,96863.35
2019-01-12T23:29:27.268Z,96867.66
2019-01-12T23:31:58.755Z,96870.64
2019-01-12T23:34:30.400Z,96869.30
2019-01-12T23:37:02.004Z,96865.73
2019-01-12T23:39:33.562Z,96871.76
2019-01-12T23:42:05.065Z,96865.83
2019-01-12T23:44:36.722Z,96876.80
2019-01-12T23:47:08.129Z,96868.57
2019-01-12T23:49:39.682Z,96873.22
2019-01-12T23:52:11.227Z,96866.66
2019-01-12T23:54:42.726Z,96864.23
2019-01-12T23:57:14.258Z,96869.08
2019-01-12T23:59:45.852Z,96875.52
